Time;durP1;ratioP1;P1;durP2;ratioP2;P2;SDS_P1;SDS_P2;PMS_P1;PMS_P2;Temp;Humidity;BMP_temperature;BMP_pressure;BME280_temperature;BME280_humidity;BME280_pressure;Samples;Min_cycle;Max_cycle;Signal;HPM_P1;HPM_P2
2022/02/23 00:00:33;;;;;;;1.60;0.40;;;8.20;85.00;;;;;;4965072;28;20602;-71
2022/02/23 00:03:02;;;;;;;1.00;0.45;;;8.20;84.90;;;;;;4987513;28;20112;-71
2022/02/23 00:05:42;;;;;;;2.42;0.40;;;8.20;84.70;;;;;;4985915;28;20053;-70
2022/02/23 00:08:33;;;;;;;1.77;0.88;;;8.20;84.50;;;;;;4984778;28;20163;-71
2022/02/23 00:11:11;;;;;;;1.50;0.52;;;8.20;84.40;;;;;;4979971;28;20621;-70
2022/02/23 00:13:39;;;;;;;1.48;0.65;;;8.10;84.40;;;;;;4982318;28;20045;-70
2022/02/23 00:16:12;;;;;;;2.55;0.63;;;8.10;84.30;;;;;;4985486;28;20034;-70
2022/02/23 00:18:39;;;;;;;1.95;0.57;;;8.10;84.30;;;;;;4982349;28;20050;-72
2022/02/23 00:21:08;;;;;;;1.13;0.57;;;8.00;84.30;;;;;;4988731;28;20053;-72
2022/02/23 00:23:42;;;;;;;1.65;0.40;;;8.00;84.30;;;;;;4987085;28;20109;-71
2022/02/23 00:26:19;;;;;;;1.52;0.80;;;8.00;84.30;;;;;;4988859;28;20057;-70
2022/02/23 00:28:51;;;;;;;4.18;0.95;;;7.90;84.10;;;;;;4970949;28;20576;-71
2022/02/23 00:31:24;;;;;;;4.22;0.73;;;7.90;84.00;;;;;;4987257;28;20057;-71
2022/02/23 00:33:52;;;;;;;3.83;1.05;;;7.90;83.80;;;;;;4982322;28;20061;-71
2022/02/23 00:36:21;;;;;;;2.35;0.55;;;7.80;83.60;;;;;;4987189;28;20583;-71
2022/02/23 00:38:48;;;;;;;1.98;0.40;;;7.80;83.40;;;;;;4983586;28;20194;-71
2022/02/23 00:41:16;;;;;;;1.70;0.60;;;7.80;83.20;;;;;;4987298;28;20046;-70
2022/02/23 00:43:44;;;;;;;4.55;0.60;;;7.80;83.00;;;;;;4986852;28;20577;-72
2022/02/23 00:46:12;;;;;;;0.80;0.52;;;7.70;82.90;;;;;;4986716;28;20112;-71
2022/02/23 00:48:42;;;;;;;1.85;0.80;;;7.70;82.70;;;;;;4987686;28;20054;-71
2022/02/23 00:51:09;;;;;;;2.45;0.55;;;7.70;82.70;;;;;;4987335;28;20056;-70
2022/02/23 00:53:43;;;;;;;3.33;0.68;;;7.70;82.70;;;;;;4983392;28;20057;-71
2022/02/23 00:56:14;;;;;;;4.50;0.52;;;7.60;82.70;;;;;;4987492;28;20577;-69
2022/02/23 00:58:45;;;;;;;3.58;0.68;;;7.60;82.80;;;;;;4986729;28;20054;-71
2022/02/23 01:01:14;;;;;;;1.77;0.85;;;7.60;82.80;;;;;;4987349;28;20141;-71
2022/02/23 01:03:41;;;;;;;2.35;0.70;;;7.50;82.80;;;;;;4990928;28;20053;-70
2022/02/23 01:06:17;;;;;;;7.30;0.55;;;7.40;82.70;;;;;;4992268;28;21918;-71
2022/02/23 01:08:46;;;;;;;3.72;1.02;;;7.40;82.70;;;;;;4990588;28;20050;-71
2022/02/23 01:11:22;;;;;;;2.25;0.63;;;7.40;82.60;;;;;;4991324;28;20045;-71
2022/02/23 01:13:50;;;;;;;4.63;0.90;;;7.40;82.60;;;;;;4991553;28;20042;-71
2022/02/23 01:16:19;;;;;;;2.22;0.60;;;7.30;82.80;;;;;;4988616;28;20042;-71
2022/02/23 01:18:57;;;;;;;4.50;0.90;;;7.30;82.80;;;;;;4973129;28;20682;-72
2022/02/23 01:21:30;;;;;;;2.55;0.60;;;7.20;82.70;;;;;;4972251;28;20042;-69
2022/02/23 01:23:59;;;;;;;;;;;7.20;82.80;;;;;;4992838;28;20089;-71
2022/02/23 01:26:30;;;;;;;6.55;1.02;;;7.20;82.80;;;;;;4991975;28;19926;-72
2022/02/23 01:28:57;;;;;;;2.60;0.55;;;7.10;83.00;;;;;;4990510;28;20057;-70
2022/02/23 01:31:24;;;;;;;2.13;0.40;;;7.10;83.00;;;;;;4991370;28;20073;-71
2022/02/23 01:33:51;;;;;;;4.03;0.43;;;7.10;83.20;;;;;;4989457;28;20117;-75
2022/02/23 01:36:22;;;;;;;2.70;0.40;;;7.00;83.20;;;;;;4990748;28;20683;-71
2022/02/23 01:38:52;;;;;;;;;;;7.00;83.30;;;;;;4990458;28;20054;-71
2022/02/23 01:41:27;;;;;;;1.60;0.20;;;7.00;83.50;;;;;;4990981;28;20291;-70
2022/02/23 01:44:06;;;;;;;3.13;0.60;;;6.90;83.50;;;;;;4991139;28;20051;-71
2022/02/23 01:46:33;;;;;;;3.00;1.10;;;6.90;83.40;;;;;;4990347;28;20052;-71
2022/02/23 01:49:08;;;;;;;2.95;0.50;;;6.90;83.30;;;;;;4989766;28;20054;-71
2022/02/23 01:51:38;;;;;;;1.85;0.50;;;6.80;83.20;;;;;;4990047;28;20128;-71
2022/02/23 01:54:23;;;;;;;1.50;0.75;;;6.90;83.20;;;;;;4990617;28;20038;-70
2022/02/23 01:56:52;;;;;;;3.58;1.08;;;6.80;83.30;;;;;;4988219;28;20093;-71
2022/02/23 01:59:20;;;;;;;2.65;1.33;;;6.80;83.20;;;;;;4981780;28;20065;-72
2022/02/23 02:01:47;;;;;;;1.15;0.43;;;6.70;83.20;;;;;;4988775;28;20052;-70
2022/02/23 02:04:15;;;;;;;2.38;0.40;;;6.70;83.20;;;;;;4990675;28;20045;-71
2022/02/23 02:06:44;;;;;;;4.80;0.73;;;6.70;83.30;;;;;;4991081;28;20065;-71
2022/02/23 02:09:14;;;;;;;1.35;0.70;;;6.70;83.30;;;;;;4990175;28;20050;-69
2022/02/23 02:11:44;;;;;;;;;;;6.60;83.40;;;;;;4992374;28;20046;-70
2022/02/23 02:14:30;;;;;;;1.90;0.70;;;6.60;83.50;;;;;;4990276;28;19925;-71
2022/02/23 02:17:00;;;;;;;2.58;0.47;;;6.60;83.50;;;;;;4989741;28;20042;-70
2022/02/23 02:19:30;;;;;;;4.15;0.40;;;6.50;83.40;;;;;;4989733;28;20034;-71
2022/02/23 02:25:08;;;;;;;4.20;0.77;;;6.50;83.50;;;;;;4966339;28;20061;-70
2022/02/23 02:27:35;;;;;;;2.33;0.70;;;6.50;83.50;;;;;;4988723;28;20046;-71
2022/02/23 02:30:02;;;;;;;3.45;1.08;;;6.50;83.50;;;;;;4990949;28;20588;-70
2022/02/23 02:32:30;;;;;;;3.25;0.60;;;6.40;83.30;;;;;;4991280;28;20053;-71
2022/02/23 02:34:57;;;;;;;4.05;1.13;;;6.40;83.40;;;;;;4990349;28;20127;-71
2022/02/23 02:37:26;;;;;;;4.35;0.45;;;6.30;83.40;;;;;;4985549;28;20054;-69
2022/02/23 02:39:53;;;;;;;2.08;1.00;;;6.20;83.40;;;;;;4990654;28;20042;-71
2022/02/23 02:42:21;;;;;;;1.35;0.50;;;6.10;83.60;;;;;;4987055;28;20101;-70
2022/02/23 02:44:51;;;;;;;2.22;0.50;;;6.10;83.60;;;;;;4978611;28;20065;-71
2022/02/23 02:47:21;;;;;;;2.70;0.70;;;6.10;83.60;;;;;;4981923;28;20046;-70
2022/02/23 02:49:51;;;;;;;7.57;0.65;;;6.10;83.50;;;;;;4988390;28;20066;-71
2022/02/23 02:52:21;;;;;;;1.95;0.75;;;6.00;83.60;;;;;;4990593;28;20045;-71
2022/02/23 02:54:57;;;;;;;3.10;0.50;;;6.00;83.50;;;;;;4987112;28;20064;-69
2022/02/23 02:57:25;;;;;;;2.78;0.55;;;5.90;83.50;;;;;;4988204;28;20041;-71
2022/02/23 02:59:52;;;;;;;6.07;1.08;;;5.90;83.60;;;;;;4986501;28;20054;-71
2022/02/23 03:02:22;;;;;;;3.10;0.40;;;5.90;83.70;;;;;;4985837;28;20041;-71
2022/02/23 03:04:55;;;;;;;1.10;0.50;;;5.90;83.60;;;;;;4986480;28;20045;-71
2022/02/23 03:07:22;;;;;;;5.93;0.82;;;5.90;83.70;;;;;;4989082;28;20607;-71
2022/02/23 03:09:54;;;;;;;3.40;0.43;;;6.00;83.60;;;;;;4985021;28;20122;-72
2022/02/23 03:12:29;;;;;;;6.15;0.55;;;6.00;83.70;;;;;;4983829;28;20046;-72
2022/02/23 03:15:06;;;;;;;2.70;0.38;;;6.00;83.70;;;;;;4989541;28;20054;-74
2022/02/23 03:17:34;;;;;;;2.42;0.50;;;5.90;83.60;;;;;;4989600;28;20046;-73
2022/02/23 03:20:05;;;;;;;3.03;0.88;;;5.90;83.70;;;;;;4990292;28;20510;-73
2022/02/23 03:22:32;;;;;;;3.97;0.77;;;5.90;83.70;;;;;;4990270;28;20052;-74
2022/02/23 03:25:01;;;;;;;2.50;0.32;;;5.80;83.80;;;;;;4991514;28;20050;-72
2022/02/23 03:27:28;;;;;;;5.75;0.68;;;5.80;83.80;;;;;;4993408;28;20167;-73
2022/02/23 03:29:59;;;;;;;2.20;1.10;;;5.80;83.70;;;;;;4990583;28;20071;-74
2022/02/23 03:32:36;;;;;;;5.03;0.70;;;5.70;83.80;;;;;;4990420;28;20050;-72
2022/02/23 03:35:07;;;;;;;1.50;0.57;;;5.70;83.70;;;;;;4988610;28;20054;-74
2022/02/23 03:37:34;;;;;;;3.03;0.60;;;5.70;83.70;;;;;;4990058;28;20559;-70
2022/02/23 03:40:03;;;;;;;1.27;0.40;;;5.70;83.70;;;;;;4988749;28;20050;-72
2022/02/23 03:42:36;;;;;;;1.13;0.47;;;5.60;83.60;;;;;;4990098;28;20069;-73
2022/02/23 03:45:03;;;;;;;3.42;1.33;;;5.70;83.60;;;;;;4991136;28;20062;-73
2022/02/23 03:47:32;;;;;;;1.10;0.40;;;5.70;83.50;;;;;;4988665;28;20061;-72
2022/02/23 03:50:00;;;;;;;2.28;0.75;;;5.70;83.40;;;;;;4987328;28;20408;-72
2022/02/23 03:52:39;;;;;;;3.22;0.50;;;5.60;83.30;;;;;;4987981;28;20048;-74
2022/02/23 03:55:12;;;;;;;1.27;0.50;;;5.60;83.50;;;;;;4988379;28;20061;-71
2022/02/23 03:57:44;;;;;;;0.47;0.30;;;5.50;83.40;;;;;;4986802;28;20046;-72
2022/02/23 04:00:14;;;;;;;3.63;1.42;;;5.60;83.40;;;;;;4987360;28;20058;-72
2022/02/23 04:02:42;;;;;;;2.28;0.65;;;5.60;83.60;;;;;;4989468;28;20057;-73
2022/02/23 04:05:10;;;;;;;1.55;0.43;;;5.50;83.60;;;;;;4989176;28;20175;-72
2022/02/23 04:07:40;;;;;;;1.63;0.65;;;5.60;83.50;;;;;;4988071;28;20049;-74
2022/02/23 04:10:10;;;;;;;3.17;1.20;;;5.60;83.60;;;;;;4990139;28;20033;-72
2022/02/23 04:12:39;;;;;;;8.43;1.38;;;5.50;83.40;;;;;;4990078;28;20492;-71
2022/02/23 04:15:08;;;;;;;0.93;0.50;;;5.50;83.50;;;;;;4987445;28;20040;-72
2022/02/23 04:17:37;;;;;;;2.08;0.65;;;5.40;83.50;;;;;;4989547;28;20239;-72
2022/02/23 04:20:10;;;;;;;3.30;0.55;;;5.40;83.40;;;;;;4988439;28;20072;-72
2022/02/23 04:22:45;;;;;;;1.83;0.90;;;5.40;83.30;;;;;;4986722;28;20500;-71
2022/02/23 04:25:16;;;;;;;4.60;0.82;;;5.30;83.40;;;;;;4984533;28;20042;-71
2022/02/23 04:27:56;;;;;;;1.08;0.60;;;5.30;83.50;;;;;;4976503;28;20046;-72
2022/02/23 04:30:26;;;;;;;5.22;0.57;;;5.30;83.50;;;;;;4980949;28;20155;-71
2022/02/23 04:32:56;;;;;;;5.75;0.88;;;5.30;83.80;;;;;;4980170;28;20707;-69
2022/02/23 04:35:23;;;;;;;;;;;5.30;83.70;;;;;;4986924;28;20058;-70
2022/02/23 04:37:53;;;;;;;1.48;0.70;;;5.30;83.70;;;;;;4985233;28;20024;-70
2022/02/23 04:40:41;;;;;;;2.10;0.43;;;5.30;83.70;;;;;;4983345;28;20054;-70
2022/02/23 04:43:10;;;;;;;2.97;0.85;;;5.30;83.70;;;;;;4981488;28;20046;-68
2022/02/23 04:45:44;;;;;;;3.88;0.60;;;5.30;83.70;;;;;;4987617;28;20049;-70
2022/02/23 04:48:13;;;;;;;1.80;0.82;;;5.30;83.70;;;;;;4986683;28;20054;-70
2022/02/23 04:50:40;;;;;;;1.60;0.70;;;5.20;83.70;;;;;;4984058;28;20073;-69
2022/02/23 04:53:08;;;;;;;4.38;0.95;;;5.20;83.60;;;;;;4984793;28;20046;-69
2022/02/23 04:55:40;;;;;;;3.25;0.60;;;5.20;83.40;;;;;;4987515;28;20112;-69
2022/02/23 04:58:08;;;;;;;2.35;0.73;;;5.20;83.20;;;;;;4983325;28;20088;-69
2022/02/23 05:00:41;;;;;;;4.03;0.93;;;5.10;83.40;;;;;;4979460;28;20061;-69
2022/02/23 05:03:11;;;;;;;4.03;1.02;;;5.10;83.40;;;;;;4982322;28;20056;-70
2022/02/23 05:05:39;;;;;;;4.78;1.23;;;5.00;83.50;;;;;;4983743;28;20480;-69
2022/02/23 05:08:12;;;;;;;2.80;0.88;;;5.00;83.50;;;;;;4982079;28;20184;-69
2022/02/23 05:10:44;;;;;;;4.10;1.00;;;5.00;83.50;;;;;;4980517;28;20554;-69
2022/02/23 05:13:12;;;;;;;5.15;1.23;;;5.00;83.50;;;;;;4978547;28;20401;-69
2022/02/23 05:15:43;;;;;;;5.45;1.00;;;4.90;83.60;;;;;;4980562;28;20073;-71
2022/02/23 05:18:11;;;;;;;6.63;1.02;;;5.00;83.30;;;;;;4980504;28;20043;-69
2022/02/23 05:20:42;;;;;;;6.95;1.45;;;4.90;83.40;;;;;;4983055;28;20104;-68
2022/02/23 05:23:13;;;;;;;3.22;0.80;;;4.80;83.40;;;;;;4982085;28;20050;-69
2022/02/23 05:25:46;;;;;;;4.60;0.85;;;4.80;83.50;;;;;;4982205;28;20057;-70
2022/02/23 05:28:14;;;;;;;2.47;0.60;;;4.80;83.60;;;;;;4983778;28;20044;-70
2022/02/23 05:30:42;;;;;;;2.22;1.05;;;4.80;83.60;;;;;;4979579;28;20052;-69
2022/02/23 05:33:22;;;;;;;2.20;1.10;;;4.70;83.50;;;;;;4982524;28;20049;-69
2022/02/23 05:35:51;;;;;;;5.07;1.10;;;4.70;83.50;;;;;;4981221;28;20053;-68
2022/02/23 05:38:18;;;;;;;2.22;0.88;;;4.70;83.60;;;;;;4987822;28;20042;-70
2022/02/23 05:40:47;;;;;;;2.33;0.80;;;4.60;83.80;;;;;;4982001;28;20050;-68
2022/02/23 05:43:20;;;;;;;6.28;1.60;;;4.60;84.00;;;;;;4982782;28;20050;-69
2022/02/23 05:45:51;;;;;;;8.88;1.42;;;4.60;84.20;;;;;;4980152;28;20057;-69
2022/02/23 05:48:18;;;;;;;4.63;1.63;;;4.60;84.30;;;;;;4991799;28;20131;-69
2022/02/23 05:50:46;;;;;;;5.13;1.48;;;4.60;84.50;;;;;;4990053;28;20066;-69
2022/02/23 05:53:13;;;;;;;3.75;1.17;;;4.60;84.50;;;;;;4989093;28;20625;-68
2022/02/23 05:55:41;;;;;;;4.60;1.58;;;4.60;84.60;;;;;;4985537;28;20145;-70
2022/02/23 05:58:14;;;;;;;3.70;0.93;;;4.60;84.60;;;;;;4989780;28;20070;-69
2022/02/23 06:00:43;;;;;;;2.83;1.17;;;4.60;84.40;;;;;;4989985;28;20046;-69
2022/02/23 06:03:10;;;;;;;1.95;0.65;;;4.60;84.30;;;;;;4984503;28;20520;-70
2022/02/23 06:05:38;;;;;;;4.55;1.10;;;4.60;84.30;;;;;;4986121;28;20054;-68
2022/02/23 06:08:06;;;;;;;4.32;1.67;;;4.60;84.10;;;;;;4986553;28;20049;-69
2022/02/23 06:10:33;;;;;;;4.00;1.17;;;4.50;84.00;;;;;;4985886;28;20046;-72
2022/02/23 06:13:01;;;;;;;2.03;0.95;;;4.50;83.90;;;;;;4987689;28;20123;-69
2022/02/23 06:15:31;;;;;;;3.47;0.90;;;4.50;83.90;;;;;;4988910;28;20951;-70
2022/02/23 06:17:58;;;;;;;4.10;0.85;;;4.60;83.80;;;;;;4983556;28;20061;-68
2022/02/23 06:20:25;;;;;;;2.75;1.48;;;4.50;83.70;;;;;;4991021;28;20152;-69
2022/02/23 06:22:55;;;;;;;6.05;1.02;;;4.50;83.70;;;;;;4987259;28;20081;-69
2022/02/23 06:25:25;;;;;;;1.58;0.57;;;4.40;83.60;;;;;;4987776;28;20101;-68
2022/02/23 06:27:53;;;;;;;2.50;1.10;;;4.40;83.70;;;;;;4987266;28;20611;-68
2022/02/23 06:30:21;;;;;;;5.18;1.30;;;4.40;83.70;;;;;;4987784;28;20052;-68
2022/02/23 06:32:49;;;;;;;4.93;1.38;;;4.40;83.70;;;;;;4962487;28;20074;-71
2022/02/23 06:35:17;;;;;;;4.28;1.10;;;4.40;83.60;;;;;;4985146;28;20050;-69
2022/02/23 06:37:44;;;;;;;3.08;0.88;;;4.40;83.60;;;;;;4984972;28;20053;-69
2022/02/23 06:40:14;;;;;;;6.70;2.15;;;4.40;83.60;;;;;;4985501;28;20616;-70
2022/02/23 06:42:41;;;;;;;2.95;1.42;;;4.40;83.70;;;;;;4990388;28;20140;-70
2022/02/23 06:45:11;;;;;;;4.53;1.40;;;4.40;83.70;;;;;;4992787;28;20092;-71
2022/02/23 06:47:38;;;;;;;4.85;1.33;;;4.40;83.80;;;;;;4983708;28;20053;-69
2022/02/23 06:50:08;;;;;;;2.70;1.00;;;4.40;83.80;;;;;;4986996;28;20228;-71
2022/02/23 06:52:37;;;;;;;6.75;1.38;;;4.40;83.70;;;;;;4982045;28;20058;-69
2022/02/23 06:55:10;;;;;;;2.80;0.77;;;4.40;83.70;;;;;;4984782;28;20057;-72
2022/02/23 06:57:45;;;;;;;7.82;1.30;;;4.40;83.80;;;;;;4984298;28;20073;-70
2022/02/23 07:00:15;;;;;;;4.97;1.33;;;4.40;83.70;;;;;;4985157;28;20061;-71
2022/02/23 07:02:42;;;;;;;5.82;1.15;;;4.40;83.70;;;;;;4984429;28;20050;-71
2022/02/23 07:05:21;;;;;;;4.45;1.55;;;4.30;83.80;;;;;;4974065;28;20050;-73
2022/02/23 07:07:50;;;;;;;3.90;1.38;;;4.30;83.70;;;;;;4990142;28;20050;-70
2022/02/23 07:10:26;;;;;;;1.88;1.08;;;4.40;83.80;;;;;;4989653;28;20050;-72
2022/02/23 07:12:58;;;;;;;6.30;1.10;;;4.30;83.90;;;;;;4990236;28;20050;-69
2022/02/23 07:15:29;;;;;;;2.63;1.17;;;4.40;84.00;;;;;;4991797;28;20513;-71
2022/02/23 07:17:59;;;;;;;7.75;2.15;;;4.40;84.00;;;;;;4990249;28;20042;-68
2022/02/23 07:20:37;;;;;;;3.58;1.17;;;4.40;84.10;;;;;;4984680;28;20176;-70
2022/02/23 07:23:07;;;;;;;5.82;1.48;;;4.40;84.10;;;;;;4989787;28;20080;-70
2022/02/23 07:25:37;;;;;;;3.40;1.48;;;4.40;84.20;;;;;;4988284;28;20180;-71
2022/02/23 07:28:10;;;;;;;3.38;1.77;;;4.50;84.30;;;;;;4987991;28;20075;-71
2022/02/23 07:30:39;;;;;;;4.78;0.88;;;4.50;84.30;;;;;;4988207;28;20075;-70
2022/02/23 07:33:06;;;;;;;3.15;1.27;;;4.50;84.30;;;;;;4990094;28;20053;-72
2022/02/23 07:35:42;;;;;;;3.03;1.48;;;4.50;84.40;;;;;;4990611;28;20093;-70
2022/02/23 07:38:16;;;;;;;2.28;0.90;;;4.60;84.50;;;;;;4989473;28;20070;-70
2022/02/23 07:40:45;;;;;;;5.57;1.05;;;4.60;84.50;;;;;;4989652;28;20127;-70
2022/02/23 07:43:12;;;;;;;2.05;1.10;;;4.60;84.50;;;;;;4989857;28;20053;-71
2022/02/23 07:45:41;;;;;;;5.53;1.90;;;4.60;84.60;;;;;;4990917;28;20074;-72
2022/02/23 07:48:09;;;;;;;2.38;1.00;;;4.60;84.70;;;;;;4988745;28;20155;-70
2022/02/23 07:50:38;;;;;;;7.95;1.73;;;4.70;84.80;;;;;;4989259;28;20057;-71
2022/02/23 07:53:07;;;;;;;7.22;2.90;;;4.70;84.90;;;;;;4987555;28;20757;-71
2022/02/23 07:55:37;;;;;;;3.85;1.48;;;4.70;85.00;;;;;;4991263;28;20964;-72
2022/02/23 07:58:05;;;;;;;2.55;1.50;;;4.70;85.00;;;;;;4990840;28;20042;-69
2022/02/23 08:00:32;;;;;;;5.28;1.83;;;4.70;85.10;;;;;;4986966;28;20046;-70
2022/02/23 08:03:00;;;;;;;4.72;1.80;;;4.80;85.20;;;;;;4990390;28;20056;-70
2022/02/23 08:05:33;;;;;;;7.82;2.83;;;4.80;85.30;;;;;;4991634;28;20045;-70
2022/02/23 08:08:00;;;;;;;;;;;4.80;85.30;;;;;;4992658;28;20050;-71
2022/02/23 08:10:30;;;;;;;7.60;2.15;;;4.80;85.40;;;;;;4991813;28;20310;-70
2022/02/23 08:12:58;;;;;;;8.68;3.05;;;4.90;85.40;;;;;;4991579;28;20042;-72
2022/02/23 08:20:57;;;;;;;4.65;1.55;;;5.00;85.60;;;;;;4987607;28;20166;-70
2022/02/23 08:23:27;;;;;;;7.68;1.90;;;5.20;85.60;;;;;;4984321;28;20050;-71
2022/02/23 08:25:55;;;;;;;4.93;1.70;;;5.20;85.70;;;;;;4985966;28;20045;-69
2022/02/23 08:28:23;;;;;;;6.28;1.30;;;5.20;85.80;;;;;;4986083;28;20522;-70
2022/02/23 08:30:50;;;;;;;6.40;2.42;;;5.30;86.00;;;;;;4988206;28;20042;-70
2022/02/23 08:33:17;;;;;;;5.20;1.20;;;5.40;85.90;;;;;;4972813;28;20050;-70
2022/02/23 08:35:45;;;;;;;7.20;2.85;;;5.50;85.80;;;;;;4988320;28;20077;-71
2022/02/23 08:38:13;;;;;;;7.18;1.65;;;5.60;85.80;;;;;;4988419;28;20042;-69
2022/02/23 08:40:42;;;;;;;3.88;1.45;;;5.60;85.70;;;;;;4990212;28;20490;-70
2022/02/23 08:43:11;;;;;;;5.05;1.95;;;5.70;85.90;;;;;;4991555;28;20052;-70
2022/02/23 08:45:39;;;;;;;6.05;2.78;;;5.80;85.90;;;;;;4990129;28;20051;-70
2022/02/23 08:48:06;;;;;;;5.38;1.58;;;5.90;86.00;;;;;;4992212;28;20049;-69
2022/02/23 08:50:35;;;;;;;8.63;2.35;;;5.90;85.90;;;;;;4989178;28;20042;-71
2022/02/23 08:53:03;;;;;;;6.45;2.20;;;6.00;85.90;;;;;;4990945;28;20143;-70
2022/02/23 08:55:33;;;;;;;5.03;1.70;;;6.10;85.90;;;;;;4992115;28;20054;-70
2022/02/23 08:58:01;;;;;;;7.25;2.22;;;6.10;85.90;;;;;;4991765;28;20053;-69
2022/02/23 09:00:44;;;;;;;4.72;1.73;;;6.10;85.80;;;;;;4992688;28;20108;-68
2022/02/23 09:03:14;;;;;;;4.50;1.55;;;6.20;86.10;;;;;;4991779;28;20150;-68
2022/02/23 09:05:42;;;;;;;7.03;2.25;;;6.30;86.00;;;;;;4990035;28;20441;-70
2022/02/23 09:08:10;;;;;;;6.63;2.08;;;6.40;85.90;;;;;;4988902;28;20038;-68
2022/02/23 09:10:38;;;;;;;4.45;2.65;;;6.50;85.90;;;;;;4987269;28;20097;-68
2022/02/23 09:13:09;;;;;;;2.83;1.60;;;6.50;86.00;;;;;;4987102;28;20053;-68
2022/02/23 09:15:40;;;;;;;6.68;2.25;;;6.60;86.10;;;;;;4990099;28;20076;-68
2022/02/23 09:18:11;;;;;;;11.57;1.80;;;6.70;86.00;;;;;;4988491;28;20785;-68
2022/02/23 09:20:38;;;;;;;6.05;2.05;;;6.80;86.00;;;;;;4990443;28;20050;-69
2022/02/23 09:23:05;;;;;;;3.17;1.55;;;6.90;85.90;;;;;;4988712;28;20046;-69
2022/02/23 09:25:33;;;;;;;5.45;1.90;;;6.90;85.90;;;;;;4995740;28;20049;-68
2022/02/23 09:28:03;;;;;;;8.45;1.92;;;7.10;85.90;;;;;;4992865;28;20082;-68
2022/02/23 09:30:31;;;;;;;6.82;1.55;;;7.10;85.60;;;;;;4991376;28;20608;-69
2022/02/23 09:33:03;;;;;;;6.05;1.92;;;7.20;85.50;;;;;;4995089;28;20041;-69
2022/02/23 09:35:31;;;;;;;4.50;1.45;;;7.30;85.60;;;;;;4996332;28;20053;-71
2022/02/23 09:38:01;;;;;;;6.30;1.50;;;7.40;85.40;;;;;;4992117;28;20046;-68
2022/02/23 09:40:29;;;;;;;4.38;1.77;;;7.50;85.30;;;;;;4993812;28;20052;-69
2022/02/23 09:42:56;;;;;;;3.08;0.98;;;7.60;85.30;;;;;;4993507;28;21282;-70
2022/02/23 09:45:24;;;;;;;4.97;1.05;;;7.70;85.20;;;;;;4992800;28;20136;-69
2022/02/23 09:47:51;;;;;;;5.00;1.40;;;7.80;85.20;;;;;;4994888;28;20054;-70
2022/02/23 09:50:22;;;;;;;5.60;1.23;;;7.80;84.80;;;;;;4994454;28;20538;-70
2022/02/23 09:52:50;;;;;;;4.53;1.20;;;7.90;84.70;;;;;;4992359;28;20172;-71
2022/02/23 09:55:20;;;;;;;9.38;1.33;;;8.00;84.20;;;;;;4992583;28;20053;-69
2022/02/23 09:57:48;;;;;;;13.57;2.42;;;8.00;84.00;;;;;;4993421;28;20050;-70
2022/02/23 10:00:17;;;;;;;6.43;1.08;;;8.10;84.20;;;;;;4989990;28;20492;-70
2022/02/23 10:02:44;;;;;;;7.30;1.23;;;8.20;83.60;;;;;;4991882;28;20042;-70
2022/02/23 10:05:12;;;;;;;4.60;1.48;;;8.30;83.60;;;;;;4992928;28;20050;-70
2022/02/23 10:07:42;;;;;;;4.35;1.08;;;8.30;83.30;;;;;;4993409;28;20050;-70
2022/02/23 10:10:11;;;;;;;8.07;1.60;;;8.40;82.90;;;;;;4989902;28;20177;-69
2022/02/23 10:12:43;;;;;;;5.95;1.80;;;8.40;83.30;;;;;;4975194;28;20064;-69
2022/02/23 10:15:12;;;;;;;7.72;2.90;;;8.50;82.90;;;;;;4990681;28;20057;-69
2022/02/23 10:17:43;;;;;;;4.55;1.10;;;8.60;82.70;;;;;;4992732;28;20078;-70
2022/02/23 10:20:22;;;;;;;7.53;1.40;;;8.60;82.20;;;;;;4992081;28;20062;-71
2022/02/23 10:22:51;;;;;;;6.50;1.45;;;8.70;82.30;;;;;;4991560;28;20046;-69
2022/02/23 10:25:23;;;;;;;5.03;1.38;;;8.70;81.90;;;;;;4991692;28;20052;-69
2022/02/23 10:27:52;;;;;;;5.68;1.33;;;8.80;82.10;;;;;;4989979;28;20077;-70
2022/02/23 10:30:45;;;;;;;4.57;1.35;;;8.90;81.90;;;;;;4988289;28;20051;-71
2022/02/23 10:33:15;;;;;;;10.20;1.65;;;8.90;81.40;;;;;;4990223;28;20042;-70
2022/02/23 10:35:51;;;;;;;6.40;1.40;;;9.00;80.70;;;;;;4993904;28;20117;-70
2022/02/23 10:38:25;;;;;;;3.80;1.08;;;9.00;80.70;;;;;;4991476;28;20137;-70
2022/02/23 10:40:54;;;;;;;3.78;1.00;;;9.10;80.20;;;;;;4998611;28;20053;-70
2022/02/23 10:43:24;;;;;;;3.10;1.27;;;9.20;81.00;;;;;;4990715;28;20050;-70
2022/02/23 10:45:53;;;;;;;10.60;1.48;;;9.20;79.90;;;;;;4986798;28;20062;-70
2022/02/23 10:48:35;;;;;;;7.65;1.40;;;9.20;79.70;;;;;;4986218;28;20070;-70
2022/02/23 10:51:03;;;;;;;5.28;1.17;;;9.20;79.00;;;;;;4987688;28;20404;-70
2022/02/23 10:53:35;;;;;;;7.95;1.60;;;9.30;79.40;;;;;;4995013;28;20049;-69
2022/02/23 10:56:23;;;;;;;9.73;0.93;;;9.30;78.80;;;;;;4993557;28;20049;-69
2022/02/23 10:59:02;;;;;;;5.03;1.08;;;9.30;78.80;;;;;;4989345;28;20494;-70
2022/02/23 11:01:30;;;;;;;4.55;1.13;;;9.40;78.40;;;;;;4986376;28;20042;-68
2022/02/23 11:04:04;;;;;;;9.75;1.77;;;9.40;78.30;;;;;;4984545;28;20053;-69
2022/02/23 11:06:32;;;;;;;10.45;1.50;;;9.50;78.20;;;;;;4987155;28;20056;-69
2022/02/23 11:09:05;;;;;;;8.70;2.10;;;9.60;77.50;;;;;;4978945;28;20157;-70
2022/02/23 11:11:34;;;;;;;4.75;0.75;;;9.60;77.00;;;;;;4987798;28;20050;-70
2022/02/23 11:14:08;;;;;;;10.60;1.10;;;9.70;76.50;;;;;;4988407;28;21064;-70
2022/02/23 11:16:35;;;;;;;9.27;1.52;;;9.70;75.80;;;;;;4986075;28;20041;-70
2022/02/23 11:19:05;;;;;;;4.30;0.95;;;9.70;75.80;;;;;;4978901;28;20586;-70
2022/02/23 11:21:37;;;;;;;12.60;1.47;;;9.70;75.30;;;;;;4984244;28;20050;-69
2022/02/23 11:24:11;;;;;;;9.07;1.40;;;9.70;75.50;;;;;;4987152;28;20560;-70
2022/02/23 11:26:42;;;;;;;6.57;1.17;;;9.70;74.90;;;;;;4988061;28;20042;-70
2022/02/23 11:29:17;;;;;;;11.10;1.98;;;9.70;74.80;;;;;;4985794;28;20480;-67
2022/02/23 11:31:50;;;;;;;6.78;2.08;;;9.70;74.80;;;;;;4986766;28;20504;-69
2022/02/23 11:34:19;;;;;;;13.30;2.03;;;9.70;74.10;;;;;;4978288;28;20058;-69
2022/02/23 11:36:49;;;;;;;6.60;2.08;;;9.70;74.20;;;;;;4983523;28;20046;-68
2022/02/23 11:39:25;;;;;;;7.22;1.70;;;9.70;74.80;;;;;;4990253;28;20104;-69
2022/02/23 11:41:54;;;;;;;7.65;1.63;;;9.70;74.30;;;;;;4988613;28;20382;-68
2022/02/23 11:44:26;;;;;;;9.25;1.75;;;9.70;74.10;;;;;;4988292;28;20715;-68
2022/02/23 11:47:13;;;;;;;4.95;1.05;;;9.70;74.00;;;;;;4984560;28;20057;-68
2022/02/23 11:50:08;;;;;;;5.25;1.30;;;9.70;73.90;;;;;;4983864;28;20042;-69
2022/02/23 12:05:37;;;;;;;6.63;1.30;;;9.70;74.10;;;;;;4972918;28;20049;-69
2022/02/23 12:08:51;;;;;;;7.30;1.17;;;9.70;73.60;;;;;;4986506;28;20571;-69
2022/02/23 12:15:06;;;;;;;6.07;0.80;;;9.70;74.10;;;;;;4985844;28;20112;-69
2022/02/23 12:17:55;;;;;;;9.05;0.80;;;9.70;74.00;;;;;;4984337;28;20483;-69
2022/02/23 12:20:54;;;;;;;4.50;0.95;;;9.70;73.90;;;;;;4982439;28;20042;-70
2022/02/23 12:23:51;;;;;;;6.22;0.90;;;9.70;73.40;;;;;;4977335;28;20137;-68
2022/02/23 12:26:27;;;;;;;7.68;1.10;;;9.70;73.70;;;;;;4983387;28;20141;-68
2022/02/23 12:29:02;;;;;;;5.20;0.52;;;9.70;73.50;;;;;;4983870;28;20046;-69
2022/02/23 12:31:34;;;;;;;4.70;1.00;;;9.70;73.60;;;;;;4974245;28;20803;-68
2022/02/23 12:34:14;;;;;;;8.80;1.02;;;9.70;73.80;;;;;;4979762;28;20058;-69
2022/02/23 12:36:46;;;;;;;;;;;9.70;73.40;;;;;;4982437;28;20049;-69
2022/02/23 12:39:41;;;;;;;9.35;0.70;;;9.70;73.70;;;;;;4983370;28;20299;-68
2022/02/23 12:42:20;;;;;;;8.02;0.90;;;9.70;73.30;;;;;;4987563;28;20055;-68
2022/02/23 12:44:52;;;;;;;5.97;1.33;;;9.70;73.30;;;;;;4989803;28;20149;-68
2022/02/23 12:47:29;;;;;;;6.10;0.82;;;9.70;73.10;;;;;;4987647;28;20144;-69
2022/02/23 12:50:02;;;;;;;7.60;0.98;;;9.70;72.90;;;;;;4985604;28;20622;-68
2022/02/23 12:52:29;;;;;;;2.38;0.65;;;9.70;73.50;;;;;;4986941;28;20046;-68
2022/02/23 12:54:57;;;;;;;3.47;0.70;;;9.70;73.60;;;;;;4984358;28;20094;-68
2022/02/23 12:57:28;;;;;;;4.90;0.63;;;9.70;73.60;;;;;;4986512;28;20233;-69
2022/02/23 13:00:00;;;;;;;5.15;1.00;;;9.70;73.70;;;;;;4986916;28;20049;-70
2022/02/23 13:02:32;;;;;;;3.00;0.63;;;9.70;73.60;;;;;;4987273;28;20050;-69
2022/02/23 13:05:29;;;;;;;3.42;0.75;;;9.60;73.10;;;;;;4990637;28;20041;-68
2022/02/23 13:07:56;;;;;;;4.30;0.63;;;9.70;73.50;;;;;;4983017;28;20113;-68
2022/02/23 13:10:47;;;;;;;9.77;1.67;;;9.70;73.40;;;;;;4988054;28;20806;-68
2022/02/23 13:13:39;;;;;;;5.43;0.65;;;9.60;73.70;;;;;;4987825;28;20066;-68
2022/02/23 13:16:30;;;;;;;5.70;1.10;;;9.60;73.70;;;;;;4987624;28;20042;-68
2022/02/23 13:19:07;;;;;;;7.50;0.70;;;9.60;73.60;;;;;;4971258;28;20053;-68
2022/02/23 13:21:51;;;;;;;6.13;1.53;;;9.60;73.00;;;;;;4996261;28;20320;-67
2022/02/23 13:24:29;;;;;;;4.82;0.95;;;9.60;73.50;;;;;;4991009;28;20049;-67
2022/02/23 13:27:04;;;;;;;8.80;0.65;;;9.60;72.30;;;;;;4970488;28;20042;-68
2022/02/23 13:29:48;;;;;;;3.33;0.90;;;9.60;72.10;;;;;;4990707;28;20042;-68
2022/02/23 13:32:28;;;;;;;4.47;1.15;;;9.60;72.00;;;;;;4991772;28;20044;-69
2022/02/23 13:35:17;;;;;;;2.72;0.52;;;9.60;71.10;;;;;;4990702;28;20145;-69
2022/02/23 13:37:51;;;;;;;6.18;1.02;;;9.60;71.80;;;;;;4990861;28;20061;-69
2022/02/23 13:40:44;;;;;;;3.42;0.38;;;9.60;71.50;;;;;;4993594;28;20046;-69
2022/02/23 13:43:12;;;;;;;7.15;1.08;;;9.60;71.70;;;;;;4992131;28;20113;-68
2022/02/23 13:45:58;;;;;;;1.25;0.50;;;9.50;72.20;;;;;;4991869;28;20206;-68